Liberty Lake, Washington
Current Conditions -  °F | °C
As of 8:53 AM on Saturday 20 Dec 2014 (Local Time) from KSFF Reporting Station
Overcast Overcast  
Wind Chill: 40°   Ceiling: 3900
Heat Index: 40°   Visibility: 10mi
Dew Point: 34°   Wind: 0mph
Humidity: 79%   Direction: NA
Pressure: 29.86"   Gusts: NA
Location:  47.65°N, 117.09°W
Report Text: KSFF 201653Z 00000KT 10SM BKN039 BKN048 OVC055 04/01 A2986 RMK AO2 SLP119 T00440011
Loading
Personal Weather Stations






























Interactive Weather Map New forecast layout! Learn more

10-Day Weather Forecast

Advertisements
Track Severe Weather on mobile